CFB Cold Lake
CYOD : now visible

Airfield :











YOU CAN JOIN US ON...

 
LOGIN :

Register | Disclaimer

   EN    FR    IT 

 









Legend :    VFR   Marginal VFR   IFR   Intensive IFR   Very Intensive IFR
Visi :
Ceiling :
>= 8 km
>= 3000ft
5 to 8 km
1000 to 3000 ft
1500m to 5 km
500 to 1000 ft
800 to 1500m
200 to 500 ft
< 800m
< 200 ft
Symbols :   Thunderstorms  Fog  Heavy snow  Heavy precipitations  Wind > 20 kt






- Airport Elevation : 1775 ft
- IATA code : YOD


CYOD - CFB Cold Lake

CURRENT METAR :
  • 220500Z 09002KT 1/2SM R31R/1400FT/D FZFG FEW200 M13/M14 A2967 RMK CI2 SLP089

EXPIRED METARs :
  • 220440Z 09002KT 5/8SM R31R/1600FT/D BR FEW200 M15/M16 A2967 RMK CI2 SLP086
  • 220425Z 00000KT 2 1/2SM BR FEW200 M15/M16 A2967 RMK CI2 SLP086
  • 220400Z 06003KT 6SM BR FEW200 M12/M13 A2967 RMK CI2 SLP086
  • 220300Z 00000KT 10SM BCFG FEW200 M11/M12 A2967 RMK CI2 SLP087

TAF AMD TAF CYOD
Valid from the 22 at 04:00 until the 23 at 00:00 UTC


220444Z 2204/2224 VRB03KT 1/2SM FZFG BKN008 BKN200
TEMPO 2204/2212 2SM BR FEW008 FEW200
PROB40 2204/2212 1/4SM FZFG
FM221200 09005KT 1/2SM FZFG BKN008 BKN160
TEMPO 2212/2215 3SM BR BKN010 BKN160
FM221500 09008KT P6SM BKN012 BKN160
FM221800 07005KT P6SM BKN020
TEMPO 2218/2224 BKN025 RMK NXT FCST BY 220600Z



MET'MAP, your aeronautical weather chart ! - Copyright ORBIFLY December 2007 - Disclaimer

ORBIFLY MET'MAP TEAM :

Programming & Development : Alexandra Zaïnal
Concept & original design : Baudouin d'Aumeries
Assistance for programming : Marc-Olivier Méhu
Technical & hardware support : Manuel Goepfert

Contact : metmap@orbifly.com




SOURCES & CREDITS :

   NOAA       Earth
Advisory